Time;durP1;ratioP1;P1;durP2;ratioP2;P2;SDS_P1;SDS_P2;PMS_P1;PMS_P2;Temp;Humidity;BMP_temperature;BMP_pressure;BME280_temperature;BME280_humidity;BME280_pressure;Samples;Min_cycle;Max_cycle;Signal;HPM_P1;HPM_P2
2021/08/26 00:00:25;;;;;;;4.75;3.80;;;;;;;;;;2083284;28;20206;-54
2021/08/26 00:06:30;;;;;;;5.68;4.38;;;;;;;;;;2080503;28;20646;-55
2021/08/26 00:07:31;;;;;;;4.68;3.75;;;;;;;;;;2081612;28;20168;-56
2021/08/26 00:08:32;;;;;;;5.22;4.00;;;;;;;;;;2080887;28;20218;-53
2021/08/26 00:09:32;;;;;;;4.32;3.88;;;;;;;;;;2073559;28;20180;-51
2021/08/26 00:10:33;;;;;;;5.80;3.78;;;;;;;;;;2073375;28;20185;-53
2021/08/26 00:11:33;;;;;;;5.28;4.15;;;;;;;;;;2072134;28;20182;-54
2021/08/26 00:12:37;;;;;;;5.63;3.85;;;;;;;;;;2082157;28;20180;-57
2021/08/26 00:13:37;;;;;;;5.55;3.70;;;;;;;;;;2078814;28;20177;-53
2021/08/26 00:14:38;;;;;;;9.00;4.47;;;;;;;;;;2081996;28;20215;-55
2021/08/26 00:15:40;;;;;;;7.60;4.22;;;;;;;;;;2081195;28;20207;-54
2021/08/26 00:16:53;;;;;;;8.23;4.18;;;;;;;;;;2072685;28;20184;-51
2021/08/26 00:17:53;;;;;;;5.43;3.75;;;;;;;;;;2068737;28;20378;-55
2021/08/26 00:18:54;;;;;;;6.15;3.92;;;;;;;;;;2069254;28;20173;-54
2021/08/26 00:19:54;;;;;;;7.32;4.05;;;;;;;;;;2072544;28;20189;-56
2021/08/26 00:20:55;;;;;;;9.05;4.10;;;;;;;;;;2081287;28;20204;-55
2021/08/26 00:21:55;;;;;;;6.38;3.70;;;;;;;;;;2077601;28;20251;-56
2021/08/26 00:22:55;;;;;;;7.13;4.18;;;;;;;;;;2082210;28;20634;-52
2021/08/26 00:23:55;;;;;;;6.18;3.40;;;;;;;;;;2078572;28;20168;-51
2021/08/26 00:24:55;;;;;;;5.40;4.00;;;;;;;;;;2081382;28;20549;-53
2021/08/26 00:25:56;;;;;;;7.47;4.18;;;;;;;;;;2080839;28;20671;-53
2021/08/26 00:26:56;;;;;;;7.78;3.75;;;;;;;;;;2080391;28;20618;-56
2021/08/26 00:27:56;;;;;;;7.10;3.85;;;;;;;;;;2075731;28;20165;-54
2021/08/26 00:28:57;;;;;;;5.25;3.63;;;;;;;;;;2070846;28;20267;-56
2021/08/26 00:30:03;;;;;;;5.28;3.55;;;;;;;;;;2072252;28;20189;-55
2021/08/26 00:31:03;;;;;;;5.53;3.70;;;;;;;;;;2078539;28;20246;-53
2021/08/26 00:32:04;;;;;;;8.63;3.72;;;;;;;;;;2072031;28;20676;-56
2021/08/26 00:33:04;;;;;;;7.68;3.80;;;;;;;;;;2072474;28;20622;-55
2021/08/26 00:34:05;;;;;;;7.10;4.55;;;;;;;;;;2077544;28;20176;-55
2021/08/26 00:35:05;;;;;;;8.15;4.70;;;;;;;;;;2081149;28;20164;-55
2021/08/26 00:36:05;;;;;;;7.05;4.05;;;;;;;;;;2080778;28;20253;-55
2021/08/26 00:37:06;;;;;;;5.03;3.75;;;;;;;;;;2068613;28;20240;-55
2021/08/26 00:38:06;;;;;;;8.98;4.43;;;;;;;;;;2068481;28;20179;-54
2021/08/26 00:39:06;;;;;;;8.38;4.45;;;;;;;;;;2076494;28;20727;-55
2021/08/26 00:40:06;;;;;;;8.20;4.28;;;;;;;;;;2079065;28;20196;-55
2021/08/26 00:41:07;;;;;;;8.57;3.95;;;;;;;;;;2064968;28;20553;-53
2021/08/26 00:42:08;;;;;;;5.80;3.80;;;;;;;;;;2064540;28;20619;-52
2021/08/26 00:43:12;;;;;;;8.65;3.97;;;;;;;;;;2065049;28;20267;-53
2021/08/26 00:44:12;;;;;;;7.22;3.88;;;;;;;;;;2066978;28;20182;-54
2021/08/26 00:45:13;;;;;;;7.28;3.65;;;;;;;;;;2076133;28;20185;-53
2021/08/26 00:46:14;;;;;;;8.65;4.22;;;;;;;;;;2081509;28;20891;-52
2021/08/26 00:47:14;;;;;;;7.35;4.22;;;;;;;;;;2080669;28;20280;-52
2021/08/26 00:48:14;;;;;;;7.88;4.32;;;;;;;;;;2071666;28;20169;-52
2021/08/26 00:49:15;;;;;;;7.88;4.15;;;;;;;;;;2072257;28;20673;-53
2021/08/26 00:50:16;;;;;;;6.47;3.78;;;;;;;;;;2080913;28;20206;-52
2021/08/26 00:51:16;;;;;;;6.60;3.88;;;;;;;;;;2081545;28;20207;-53
2021/08/26 00:52:16;;;;;;;6.05;4.40;;;;;;;;;;2080389;28;20219;-55
2021/08/26 00:53:17;;;;;;;8.55;4.82;;;;;;;;;;2080634;28;20183;-55
2021/08/26 00:54:17;;;;;;;13.40;4.97;;;;;;;;;;2080343;28;20160;-53
2021/08/26 00:55:18;;;;;;;6.43;4.50;;;;;;;;;;2080603;28;20172;-54
2021/08/26 00:56:18;;;;;;;8.80;4.05;;;;;;;;;;2080954;28;20523;-53
2021/08/26 00:57:20;;;;;;;8.38;3.85;;;;;;;;;;2081085;28;20657;-52
2021/08/26 00:58:20;;;;;;;9.45;4.68;;;;;;;;;;2072392;28;20224;-55
2021/08/26 00:59:20;;;;;;;9.75;4.15;;;;;;;;;;2074381;28;20183;-50
2021/08/26 01:00:21;;;;;;;7.82;4.22;;;;;;;;;;2084008;28;20206;-52
2021/08/26 01:01:27;;;;;;;8.65;4.75;;;;;;;;;;2083050;28;20164;-52
2021/08/26 01:02:31;;;;;;;9.98;4.45;;;;;;;;;;2083630;28;20203;-52
2021/08/26 01:03:51;;;;;;;10.25;5.78;;;;;;;;;;2083509;28;20168;-52
2021/08/26 01:04:55;;;;;;;14.73;5.55;;;;;;;;;;2081437;28;20182;-51
2021/08/26 01:06:02;;;;;;;8.48;5.20;;;;;;;;;;2082053;28;20187;-55
2021/08/26 01:07:06;;;;;;;9.93;4.65;;;;;;;;;;2082471;28;20156;-54
2021/08/26 01:08:11;;;;;;;8.43;4.55;;;;;;;;;;2072875;28;20220;-55
2021/08/26 01:09:13;;;;;;;10.82;4.88;;;;;;;;;;2073351;28;20192;-53
2021/08/26 01:10:16;;;;;;;7.32;4.10;;;;;;;;;;2081040;28;20621;-53
2021/08/26 01:11:17;;;;;;;8.80;4.97;;;;;;;;;;2072722;28;20182;-51
2021/08/26 01:12:20;;;;;;;8.52;5.00;;;;;;;;;;2072641;28;20246;-53
2021/08/26 01:13:20;;;;;;;11.35;5.45;;;;;;;;;;2078089;28;20176;-52
2021/08/26 01:14:20;;;;;;;10.73;5.63;;;;;;;;;;2079860;28;20215;-56
2021/08/26 01:15:20;;;;;;;8.65;5.40;;;;;;;;;;2077699;28;20192;-52
2021/08/26 01:16:21;;;;;;;10.10;5.47;;;;;;;;;;2079523;28;20208;-53
2021/08/26 01:17:24;;;;;;;7.85;5.07;;;;;;;;;;2076651;28;20193;-55
2021/08/26 01:18:27;;;;;;;7.50;4.65;;;;;;;;;;2070974;28;20204;-52
2021/08/26 01:19:27;;;;;;;9.63;4.72;;;;;;;;;;2071871;28;20177;-56
2021/08/26 01:20:27;;;;;;;9.55;5.00;;;;;;;;;;2080282;28;20161;-54
2021/08/26 01:21:27;;;;;;;9.00;5.35;;;;;;;;;;2080221;28;20732;-53
2021/08/26 01:22:28;;;;;;;9.05;4.32;;;;;;;;;;2071645;28;20216;-54
2021/08/26 01:23:31;;;;;;;9.02;4.55;;;;;;;;;;2072557;28;20165;-52
2021/08/26 01:24:32;;;;;;;12.48;5.35;;;;;;;;;;2080919;28;20649;-52
2021/08/26 01:25:39;;;;;;;9.98;5.18;;;;;;;;;;2063962;28;20534;-55
2021/08/26 01:26:45;;;;;;;10.57;5.03;;;;;;;;;;2065920;28;20216;-56
2021/08/26 01:27:49;;;;;;;8.55;4.68;;;;;;;;;;2080411;28;20175;-53
2021/08/26 01:28:53;;;;;;;6.22;4.43;;;;;;;;;;2075241;28;20235;-51
2021/08/26 01:29:53;;;;;;;8.43;4.72;;;;;;;;;;2081291;28;20619;-54
2021/08/26 01:30:53;;;;;;;8.48;4.75;;;;;;;;;;2081248;28;20175;-52
2021/08/26 01:31:54;;;;;;;14.45;5.15;;;;;;;;;;2080607;28;20195;-53
2021/08/26 01:32:55;;;;;;;9.30;4.85;;;;;;;;;;2071762;28;20653;-55
2021/08/26 01:33:56;;;;;;;15.75;4.97;;;;;;;;;;2071706;28;20169;-54
2021/08/26 01:34:56;;;;;;;10.88;4.95;;;;;;;;;;2080753;28;20668;-56
2021/08/26 01:35:58;;;;;;;10.63;5.30;;;;;;;;;;2081120;28;20177;-56
2021/08/26 01:36:58;;;;;;;11.35;4.75;;;;;;;;;;2072021;28;20187;-53
2021/08/26 01:37:58;;;;;;;10.75;4.72;;;;;;;;;;2072423;28;20578;-55
2021/08/26 01:38:59;;;;;;;10.32;5.32;;;;;;;;;;2081280;28;20538;-53
2021/08/26 01:40:00;;;;;;;12.25;4.80;;;;;;;;;;2072308;28;20732;-51
2021/08/26 01:41:00;;;;;;;9.20;4.32;;;;;;;;;;2072514;28;20183;-54
2021/08/26 01:42:00;;;;;;;9.57;4.93;;;;;;;;;;2072680;28;20226;-55
2021/08/26 01:43:02;;;;;;;15.40;4.63;;;;;;;;;;2081378;28;20661;-55
2021/08/26 01:44:02;;;;;;;11.80;5.00;;;;;;;;;;2081477;28;20164;-55
2021/08/26 01:45:06;;;;;;;10.63;5.15;;;;;;;;;;2081138;28;20211;-53
2021/08/26 01:46:07;;;;;;;6.90;4.50;;;;;;;;;;2081229;28;20297;-52
2021/08/26 01:47:08;;;;;;;10.77;4.93;;;;;;;;;;2070253;28;20696;-52
2021/08/26 01:48:08;;;;;;;6.30;4.50;;;;;;;;;;2072115;28;20327;-52
2021/08/26 01:49:08;;;;;;;11.02;5.05;;;;;;;;;;2072524;28;20317;-52
2021/08/26 01:50:08;;;;;;;10.30;4.93;;;;;;;;;;2072415;28;20196;-53
2021/08/26 01:51:09;;;;;;;11.05;5.20;;;;;;;;;;2081400;28;20657;-51
2021/08/26 01:52:10;;;;;;;8.00;5.00;;;;;;;;;;2072639;28;20176;-53
2021/08/26 01:53:10;;;;;;;11.10;4.50;;;;;;;;;;2071913;28;20184;-51
2021/08/26 01:54:11;;;;;;;11.05;5.20;;;;;;;;;;2081046;28;20198;-56
2021/08/26 01:55:11;;;;;;;12.23;5.15;;;;;;;;;;2072382;28;20180;-53
2021/08/26 01:56:11;;;;;;;8.45;5.25;;;;;;;;;;2072689;28;20264;-55
2021/08/26 01:57:11;;;;;;;8.38;5.00;;;;;;;;;;2081197;28;20610;-52
2021/08/26 01:58:15;;;;;;;9.77;4.97;;;;;;;;;;2080974;28;20234;-51
2021/08/26 01:59:15;;;;;;;11.80;5.32;;;;;;;;;;2081446;28;20219;-52
2021/08/26 02:00:15;;;;;;;13.10;5.63;;;;;;;;;;2072083;28;20213;-52
2021/08/26 02:01:16;;;;;;;9.60;5.32;;;;;;;;;;2072437;28;20181;-51
2021/08/26 02:02:16;;;;;;;13.77;5.15;;;;;;;;;;2081478;28;20255;-51
2021/08/26 02:03:16;;;;;;;11.50;5.30;;;;;;;;;;2081954;28;20202;-52
2021/08/26 02:04:17;;;;;;;9.45;4.75;;;;;;;;;;2085584;28;20168;-54
2021/08/26 02:05:17;;;;;;;16.83;5.25;;;;;;;;;;2086713;28;20240;-54
2021/08/26 02:06:17;;;;;;;9.55;5.20;;;;;;;;;;2081599;28;20255;-54
2021/08/26 02:07:18;;;;;;;11.23;4.82;;;;;;;;;;2081493;28;20701;-54
2021/08/26 02:08:18;;;;;;;12.35;5.40;;;;;;;;;;2080797;28;20679;-54
2021/08/26 02:09:18;;;;;;;9.48;4.88;;;;;;;;;;2081435;28;20208;-52
2021/08/26 02:10:19;;;;;;;16.73;5.60;;;;;;;;;;2081216;28;20196;-54
2021/08/26 02:11:19;;;;;;;10.73;5.05;;;;;;;;;;2081166;28;20679;-54
2021/08/26 02:12:19;;;;;;;11.35;5.32;;;;;;;;;;2081216;28;20255;-54
2021/08/26 02:13:19;;;;;;;14.88;5.18;;;;;;;;;;2081633;28;20176;-55
2021/08/26 02:14:20;;;;;;;9.55;5.25;;;;;;;;;;2081312;28;20180;-54
2021/08/26 02:15:20;;;;;;;12.27;5.70;;;;;;;;;;2082648;28;20203;-54
2021/08/26 02:16:20;;;;;;;10.68;5.50;;;;;;;;;;2082079;28;20176;-54
2021/08/26 02:17:21;;;;;;;12.30;5.13;;;;;;;;;;2082534;28;20200;-53
2021/08/26 02:18:21;;;;;;;10.13;5.35;;;;;;;;;;2072665;28;20228;-54
2021/08/26 02:19:21;;;;;;;9.35;4.85;;;;;;;;;;2073977;28;20172;-56
2021/08/26 02:20:22;;;;;;;15.77;4.95;;;;;;;;;;2083174;28;20580;-55
2021/08/26 02:21:22;;;;;;;16.80;5.63;;;;;;;;;;2082278;28;20642;-53
2021/08/26 02:22:22;;;;;;;12.93;5.05;;;;;;;;;;2081189;28;20179;-53
2021/08/26 02:23:23;;;;;;;12.93;5.32;;;;;;;;;;2072632;28;20188;-51
2021/08/26 02:24:23;;;;;;;13.10;5.95;;;;;;;;;;2072649;28;20169;-52
2021/08/26 02:25:23;;;;;;;8.27;4.80;;;;;;;;;;2080164;28;20529;-49
2021/08/26 02:26:23;;;;;;;9.05;4.80;;;;;;;;;;2078513;28;20188;-53
2021/08/26 02:27:24;;;;;;;16.98;5.38;;;;;;;;;;2080519;28;20247;-51
2021/08/26 02:28:24;;;;;;;16.02;5.70;;;;;;;;;;2081615;28;20176;-53
2021/08/26 02:29:24;;;;;;;14.27;5.38;;;;;;;;;;2080670;28;20183;-52
2021/08/26 02:30:24;;;;;;;13.10;5.38;;;;;;;;;;2081914;28;20184;-55
2021/08/26 02:31:25;;;;;;;10.70;5.70;;;;;;;;;;2081860;28;20180;-52
2021/08/26 02:32:29;;;;;;;10.70;5.07;;;;;;;;;;2082893;28;20208;-50
2021/08/26 02:33:29;;;;;;;10.88;5.13;;;;;;;;;;2082275;28;20191;-51
2021/08/26 02:34:29;;;;;;;11.82;5.63;;;;;;;;;;2081908;28;20204;-52
2021/08/26 02:35:29;;;;;;;10.52;5.07;;;;;;;;;;2082074;28;20238;-52
2021/08/26 02:36:30;;;;;;;9.88;4.50;;;;;;;;;;2082784;28;20584;-51
2021/08/26 02:37:30;;;;;;;10.15;5.03;;;;;;;;;;2076304;28;20543;-51
2021/08/26 02:38:30;;;;;;;12.63;5.53;;;;;;;;;;2078908;28;20172;-55
2021/08/26 02:39:31;;;;;;;8.10;4.70;;;;;;;;;;2079451;28;20215;-54
2021/08/26 02:40:31;;;;;;;18.10;5.10;;;;;;;;;;2082418;28;20184;-53
2021/08/26 02:41:31;;;;;;;12.38;5.22;;;;;;;;;;2082437;28;20188;-52
2021/08/26 02:42:32;;;;;;;13.43;5.13;;;;;;;;;;2082500;28;20169;-55
2021/08/26 02:43:32;;;;;;;12.18;5.45;;;;;;;;;;2081316;28;20184;-51
2021/08/26 02:44:32;;;;;;;13.63;4.90;;;;;;;;;;2081679;28;20172;-51
2021/08/26 02:45:32;;;;;;;13.35;5.47;;;;;;;;;;2082062;28;20291;-53
2021/08/26 02:46:33;;;;;;;11.57;4.95;;;;;;;;;;2081081;28;20172;-56
2021/08/26 02:47:33;;;;;;;15.40;5.60;;;;;;;;;;2081792;28;20173;-52
2021/08/26 02:48:33;;;;;;;10.00;5.00;;;;;;;;;;2081778;28;20550;-55
2021/08/26 02:49:33;;;;;;;17.00;4.90;;;;;;;;;;2073558;28;20172;-53
2021/08/26 02:50:34;;;;;;;11.27;5.40;;;;;;;;;;2073915;28;20648;-53
2021/08/26 02:51:34;;;;;;;14.05;5.43;;;;;;;;;;2081170;28;20185;-53
2021/08/26 02:52:34;;;;;;;11.80;5.20;;;;;;;;;;2082450;28;20168;-53
2021/08/26 02:53:35;;;;;;;12.80;5.45;;;;;;;;;;2081334;28;20179;-56
2021/08/26 02:54:35;;;;;;;15.75;5.10;;;;;;;;;;2075930;28;20247;-52
2021/08/26 02:55:35;;;;;;;10.75;5.57;;;;;;;;;;2072859;28;20625;-55
2021/08/26 02:56:35;;;;;;;11.27;5.20;;;;;;;;;;2073009;28;20622;-55
2021/08/26 02:57:36;;;;;;;13.40;5.30;;;;;;;;;;2081920;28;20188;-52
2021/08/26 02:58:36;;;;;;;10.55;5.22;;;;;;;;;;2081651;28;20205;-55
2021/08/26 02:59:36;;;;;;;13.63;6.00;;;;;;;;;;2081807;28;20172;-53
2021/08/26 03:00:36;;;;;;;8.75;4.65;;;;;;;;;;2077466;28;20169;-53
2021/08/26 03:01:37;;;;;;;10.73;5.15;;;;;;;;;;2082062;28;20176;-53
2021/08/26 03:02:37;;;;;;;14.30;5.70;;;;;;;;;;2081893;28;20168;-54
2021/08/26 03:03:37;;;;;;;17.10;5.45;;;;;;;;;;2076659;28;20657;-53
2021/08/26 03:04:37;;;;;;;11.05;5.07;;;;;;;;;;2072922;28;20200;-52
2021/08/26 03:05:38;;;;;;;12.93;5.15;;;;;;;;;;2068098;28;20602;-52
2021/08/26 03:06:38;;;;;;;8.63;4.93;;;;;;;;;;2076041;28;20693;-52
2021/08/26 03:07:38;;;;;;;7.93;4.82;;;;;;;;;;2081489;28;20172;-56
2021/08/26 03:08:38;;;;;;;14.40;5.57;;;;;;;;;;2081218;28;20179;-54
2021/08/26 03:09:39;;;;;;;9.63;5.38;;;;;;;;;;2081901;28;20188;-54
2021/08/26 03:10:39;;;;;;;11.45;5.40;;;;;;;;;;2073147;28;20177;-55
2021/08/26 03:11:39;;;;;;;8.82;5.15;;;;;;;;;;2067532;28;20184;-55
2021/08/26 03:12:40;;;;;;;13.52;5.60;;;;;;;;;;2073371;28;20180;-54
2021/08/26 03:13:40;;;;;;;14.18;5.65;;;;;;;;;;2081970;28;20172;-52
2021/08/26 03:14:40;;;;;;;11.32;4.68;;;;;;;;;;2074021;28;20230;-54
2021/08/26 03:15:41;;;;;;;13.75;5.28;;;;;;;;;;2077915;28;20177;-56
2021/08/26 03:16:41;;;;;;;8.45;5.18;;;;;;;;;;2086861;28;20238;-54
2021/08/26 03:17:41;;;;;;;13.40;5.88;;;;;;;;;;2079577;28;20204;-55
2021/08/26 03:18:41;;;;;;;16.98;5.18;;;;;;;;;;2082311;28;20172;-54
2021/08/26 03:19:42;;;;;;;17.10;5.53;;;;;;;;;;2081166;28;20392;-53
2021/08/26 03:20:42;;;;;;;9.73;4.75;;;;;;;;;;2081780;28;20252;-56
2021/08/26 03:21:42;;;;;;;15.38;5.30;;;;;;;;;;2081539;28;20203;-56
2021/08/26 03:22:42;;;;;;;10.43;5.07;;;;;;;;;;2082396;28;20176;-53
2021/08/26 03:23:43;;;;;;;10.40;5.25;;;;;;;;;;2081119;28;20171;-54
2021/08/26 03:24:43;;;;;;;11.27;5.57;;;;;;;;;;2075917;28;20609;-52
2021/08/26 03:25:44;;;;;;;13.95;5.28;;;;;;;;;;2081810;28;20180;-54
2021/08/26 03:26:44;;;;;;;15.23;6.18;;;;;;;;;;2081763;28;20738;-52
2021/08/26 03:27:45;;;;;;;11.93;4.97;;;;;;;;;;2073656;28;20203;-55
2021/08/26 03:28:45;;;;;;;15.15;5.50;;;;;;;;;;2072950;28;20625;-55
2021/08/26 03:29:46;;;;;;;12.27;5.22;;;;;;;;;;2073185;28;20196;-55
2021/08/26 03:30:46;;;;;;;10.68;5.45;;;;;;;;;;2071132;28;20261;-55
2021/08/26 03:31:47;;;;;;;11.32;4.90;;;;;;;;;;2080460;28;20580;-56
2021/08/26 03:32:47;;;;;;;17.00;5.90;;;;;;;;;;2082259;28;20167;-56
2021/08/26 03:33:47;;;;;;;14.32;5.90;;;;;;;;;;2082170;28;20267;-51
2021/08/26 03:34:47;;;;;;;11.68;5.72;;;;;;;;;;2082231;28;20173;-54
2021/08/26 03:35:49;;;;;;;15.73;5.35;;;;;;;;;;2081414;28;20187;-55
2021/08/26 03:36:49;;;;;;;13.98;6.05;;;;;;;;;;2073032;28;20176;-53
2021/08/26 03:37:49;;;;;;;13.50;5.03;;;;;;;;;;2073065;28;20216;-54
2021/08/26 03:38:49;;;;;;;16.98;5.97;;;;;;;;;;2081085;28;21660;-56
2021/08/26 03:39:50;;;;;;;15.13;6.07;;;;;;;;;;2081974;28;20219;-55
2021/08/26 03:40:50;;;;;;;14.75;5.93;;;;;;;;;;2082404;28;20176;-54
2021/08/26 03:41:50;;;;;;;9.05;5.45;;;;;;;;;;2081914;28;20242;-55
2021/08/26 03:42:50;;;;;;;11.45;5.40;;;;;;;;;;2081586;28;20170;-55
2021/08/26 03:43:51;;;;;;;10.57;5.15;;;;;;;;;;2081988;28;20172;-53
2021/08/26 03:44:51;;;;;;;11.52;5.13;;;;;;;;;;2082317;28;20187;-53
2021/08/26 03:45:52;;;;;;;11.27;5.30;;;;;;;;;;2072512;28;20172;-54
2021/08/26 03:46:52;;;;;;;11.10;5.53;;;;;;;;;;2073460;28;20560;-51
2021/08/26 03:47:52;;;;;;;12.52;6.07;;;;;;;;;;2082110;28;20172;-57
2021/08/26 03:48:52;;;;;;;12.15;5.45;;;;;;;;;;2081861;28;20666;-55
2021/08/26 03:49:53;;;;;;;14.20;5.25;;;;;;;;;;2073455;28;20223;-53
2021/08/26 03:50:53;;;;;;;13.15;5.53;;;;;;;;;;2073735;28;20256;-54
2021/08/26 03:51:53;;;;;;;11.27;5.30;;;;;;;;;;2079520;28;20279;-54
2021/08/26 03:52:54;;;;;;;13.50;5.47;;;;;;;;;;2077180;28;20539;-52
2021/08/26 03:53:54;;;;;;;13.05;5.63;;;;;;;;;;2082746;28;20176;-51
2021/08/26 03:54:54;;;;;;;13.45;5.47;;;;;;;;;;2083804;28;20653;-52
2021/08/26 03:55:54;;;;;;;21.33;5.85;;;;;;;;;;2083810;28;20606;-52
2021/08/26 03:56:55;;;;;;;11.85;5.15;;;;;;;;;;2082424;28;20168;-52
2021/08/26 03:57:55;;;;;;;14.48;5.20;;;;;;;;;;2081337;28;20165;-53
2021/08/26 03:58:55;;;;;;;12.25;5.13;;;;;;;;;;2080954;28;20605;-52
2021/08/26 03:59:55;;;;;;;17.13;5.38;;;;;;;;;;2079310;28;20220;-55
2021/08/26 04:00:55;;;;;;;17.65;5.38;;;;;;;;;;2081334;28;20210;-53
2021/08/26 04:01:56;;;;;;;10.90;5.50;;;;;;;;;;2081487;28;20172;-53
2021/08/26 04:02:56;;;;;;;11.48;5.45;;;;;;;;;;2079545;28;20175;-54
2021/08/26 04:03:56;;;;;;;14.35;6.00;;;;;;;;;;2081881;28;20227;-56
2021/08/26 04:04:56;;;;;;;11.80;4.95;;;;;;;;;;2077919;28;20173;-51
2021/08/26 04:05:57;;;;;;;15.18;5.10;;;;;;;;;;2081207;28;20188;-51
2021/08/26 04:06:57;;;;;;;11.75;5.28;;;;;;;;;;2072789;28;20184;-50
2021/08/26 04:07:57;;;;;;;16.65;5.57;;;;;;;;;;2070328;28;20312;-52
2021/08/26 04:08:57;;;;;;;14.02;5.22;;;;;;;;;;2080788;28;20252;-55
2021/08/26 04:09:58;;;;;;;14.23;5.20;;;;;;;;;;2080959;28;20207;-52
2021/08/26 04:10:58;;;;;;;11.20;4.88;;;;;;;;;;2080714;28;20195;-54
2021/08/26 04:11:59;;;;;;;12.95;5.50;;;;;;;;;;2081760;28;20318;-55
2021/08/26 04:12:59;;;;;;;12.30;5.22;;;;;;;;;;2081858;28;20199;-54
2021/08/26 04:13:59;;;;;;;12.23;5.25;;;;;;;;;;2079543;28;20726;-55
2021/08/26 04:14:59;;;;;;;11.32;4.90;;;;;;;;;;2076483;28;20591;-53
2021/08/26 04:16:00;;;;;;;11.65;5.28;;;;;;;;;;2083270;28;20179;-55
2021/08/26 04:17:00;;;;;;;17.10;4.63;;;;;;;;;;2083637;28;20251;-53
2021/08/26 04:18:00;;;;;;;14.55;5.50;;;;;;;;;;2079394;28;20632;-55
2021/08/26 04:19:01;;;;;;;14.00;5.38;;;;;;;;;;2078016;28;20211;-55
2021/08/26 04:20:01;;;;;;;13.57;4.65;;;;;;;;;;2081571;28;20192;-54
2021/08/26 04:21:01;;;;;;;16.40;5.72;;;;;;;;;;2080386;28;20164;-53
2021/08/26 04:22:01;;;;;;;14.82;5.05;;;;;;;;;;2078244;28;20172;-55
2021/08/26 04:23:05;;;;;;;13.73;5.28;;;;;;;;;;2069120;28;20212;-55
2021/08/26 04:24:05;;;;;;;16.23;5.63;;;;;;;;;;2069099;28;20166;-55
2021/08/26 04:25:06;;;;;;;15.40;5.38;;;;;;;;;;2081492;28;20184;-54
2021/08/26 04:26:06;;;;;;;9.23;4.88;;;;;;;;;;2079087;28;20235;-52
2021/08/26 04:27:06;;;;;;;17.77;5.47;;;;;;;;;;2079805;28;20668;-52
2021/08/26 04:28:07;;;;;;;10.43;5.18;;;;;;;;;;2079676;28;20206;-52
2021/08/26 04:29:08;;;;;;;11.73;5.30;;;;;;;;;;2079523;28;20168;-54
2021/08/26 04:30:09;;;;;;;8.43;4.60;;;;;;;;;;2080813;28;20195;-53
2021/08/26 04:31:09;;;;;;;12.38;5.22;;;;;;;;;;2081470;28;20628;-55
2021/08/26 04:32:09;;;;;;;14.15;5.10;;;;;;;;;;2079250;28;20208;-55
2021/08/26 04:33:09;;;;;;;15.63;4.97;;;;;;;;;;2081673;28;20164;-54
2021/08/26 04:34:10;;;;;;;12.15;5.03;;;;;;;;;;2081554;28;20211;-55
2021/08/26 04:35:10;;;;;;;13.00;4.75;;;;;;;;;;2080346;28;20267;-53
2021/08/26 04:36:11;;;;;;;9.05;4.88;;;;;;;;;;2074119;28;20188;-55
2021/08/26 04:37:11;;;;;;;11.20;4.95;;;;;;;;;;2068130;28;20280;-53
2021/08/26 04:38:12;;;;;;;8.38;5.10;;;;;;;;;;2081894;28;20869;-53
2021/08/26 04:39:12;;;;;;;10.57;4.65;;;;;;;;;;2082913;28;20242;-55
2021/08/26 04:40:12;;;;;;;9.07;4.97;;;;;;;;;;2096558;22;20317;-54
2021/08/26 04:41:12;;;;;;;8.23;4.38;;;;;;;;;;2088344;28;20843;-51
2021/08/26 04:42:13;;;;;;;8.45;4.38;;;;;;;;;;2088209;28;20180;-50
2021/08/26 04:43:13;;;;;;;10.63;4.28;;;;;;;;;;2089742;28;20182;-50
2021/08/26 04:44:13;;;;;;;12.48;4.70;;;;;;;;;;2090952;28;20734;-51
2021/08/26 04:45:14;;;;;;;10.98;4.85;;;;;;;;;;2086289;28;20176;-51
2021/08/26 04:46:14;;;;;;;9.00;5.07;;;;;;;;;;2091162;28;20289;-52
2021/08/26 04:47:14;;;;;;;9.60;4.93;;;;;;;;;;2089391;28;20623;-54
2021/08/26 04:48:15;;;;;;;9.15;4.38;;;;;;;;;;2088097;28;20200;-53
2021/08/26 04:49:15;;;;;;;9.93;4.53;;;;;;;;;;2089651;28;20640;-51
2021/08/26 04:50:15;;;;;;;9.88;4.65;;;;;;;;;;2086192;28;20205;-51
2021/08/26 04:51:16;;;;;;;8.88;4.15;;;;;;;;;;2087563;28;20222;-51
2021/08/26 04:52:16;;;;;;;11.85;5.07;;;;;;;;;;2080024;28;20172;-53
2021/08/26 04:53:16;;;;;;;11.40;3.97;;;;;;;;;;2081704;28;20306;-52
2021/08/26 04:54:18;;;;;;;8.77;4.35;;;;;;;;;;2089089;28;20175;-53
2021/08/26 04:55:18;;;;;;;14.65;4.68;;;;;;;;;;2088951;28;20176;-49
2021/08/26 04:56:18;;;;;;;12.65;4.63;;;;;;;;;;2089451;28;20661;-53
2021/08/26 04:57:19;;;;;;;12.77;4.70;;;;;;;;;;2090063;28;20207;-51
2021/08/26 04:58:19;;;;;;;11.55;4.57;;;;;;;;;;2089706;28;20218;-57
2021/08/26 04:59:19;;;;;;;9.48;4.20;;;;;;;;;;2087643;28;20168;-55
2021/08/26 05:00:19;;;;;;;10.75;4.30;;;;;;;;;;2087534;28;20206;-54
2021/08/26 05:01:19;;;;;;;10.18;4.68;;;;;;;;;;2088548;28;20187;-51
2021/08/26 05:02:20;;;;;;;6.82;4.28;;;;;;;;;;2090165;28;20190;-53
2021/08/26 05:03:20;;;;;;;9.73;4.28;;;;;;;;;;2091071;28;20568;-50
2021/08/26 05:04:24;;;;;;;10.95;4.18;;;;;;;;;;2090167;28;20583;-55
2021/08/26 05:05:24;;;;;;;9.75;4.25;;;;;;;;;;2090779;28;20175;-51
2021/08/26 05:06:24;;;;;;;9.68;4.97;;;;;;;;;;2089494;28;20175;-50
2021/08/26 05:07:24;;;;;;;11.63;4.40;;;;;;;;;;2088980;28;20250;-50
2021/08/26 05:08:24;;;;;;;12.35;4.55;;;;;;;;;;2089273;28;20525;-50
2021/08/26 05:09:25;;;;;;;11.20;4.70;;;;;;;;;;2080245;28;20190;-51
2021/08/26 05:10:25;;;;;;;14.05;5.15;;;;;;;;;;2080207;28;20203;-52
2021/08/26 05:11:25;;;;;;;11.05;5.22;;;;;;;;;;2089664;28;20214;-51
2021/08/26 05:12:25;;;;;;;10.52;4.70;;;;;;;;;;2089472;28;20213;-52
2021/08/26 05:13:25;;;;;;;9.27;5.07;;;;;;;;;;2089312;28;20217;-50
2021/08/26 05:14:26;;;;;;;11.45;4.90;;;;;;;;;;2089513;28;20186;-53
2021/08/26 05:15:26;;;;;;;10.68;4.57;;;;;;;;;;2084975;28;20179;-56
2021/08/26 05:16:26;;;;;;;9.85;4.68;;;;;;;;;;2089163;28;20187;-52
2021/08/26 05:17:27;;;;;;;11.15;4.72;;;;;;;;;;2080744;28;20196;-51
2021/08/26 05:18:27;;;;;;;10.15;5.07;;;;;;;;;;2080296;28;20192;-51
2021/08/26 05:19:27;;;;;;;10.43;4.63;;;;;;;;;;2089649;28;20176;-55
2021/08/26 05:20:27;;;;;;;10.00;4.82;;;;;;;;;;2089356;28;20179;-54
2021/08/26 05:21:27;;;;;;;9.73;4.78;;;;;;;;;;2097739;28;20216;-53
2021/08/26 05:22:28;;;;;;;12.57;5.32;;;;;;;;;;2097033;28;20192;-52
2021/08/26 05:23:29;;;;;;;9.63;4.78;;;;;;;;;;2094976;28;20171;-54
2021/08/26 05:24:30;;;;;;;14.35;6.07;;;;;;;;;;2089774;28;20176;-55
2021/08/26 05:25:30;;;;;;;10.60;5.28;;;;;;;;;;2089772;28;20645;-54
2021/08/26 05:26:30;;;;;;;9.13;4.93;;;;;;;;;;2089284;28;20172;-51
2021/08/26 05:27:31;;;;;;;9.95;5.18;;;;;;;;;;2087371;28;20257;-54
2021/08/26 05:28:31;;;;;;;13.57;5.68;;;;;;;;;;2081222;28;20239;-52
2021/08/26 05:29:31;;;;;;;14.43;4.97;;;;;;;;;;2094587;28;20183;-51
2021/08/26 05:30:32;;;;;;;13.18;5.15;;;;;;;;;;2089728;28;20271;-47
2021/08/26 05:31:32;;;;;;;9.57;5.15;;;;;;;;;;2090446;28;20214;-51
2021/08/26 05:32:32;;;;;;;10.20;4.80;;;;;;;;;;2089734;28;20167;-48
2021/08/26 05:33:32;;;;;;;15.30;5.07;;;;;;;;;;2090679;28;20610;-53
2021/08/26 05:34:33;;;;;;;10.15;5.13;;;;;;;;;;2089485;28;20519;-52
2021/08/26 05:35:33;;;;;;;10.20;5.40;;;;;;;;;;2091184;28;20278;-51
2021/08/26 05:36:33;;;;;;;12.27;5.93;;;;;;;;;;2090046;28;20171;-54
2021/08/26 05:37:33;;;;;;;7.70;5.18;;;;;;;;;;2097737;28;20199;-53
2021/08/26 05:38:34;;;;;;;11.82;5.10;;;;;;;;;;2093174;28;20178;-48
2021/08/26 05:39:34;;;;;;;15.20;5.47;;;;;;;;;;2083892;28;20756;-51
2021/08/26 05:40:34;;;;;;;10.18;5.13;;;;;;;;;;2089388;28;20284;-53
2021/08/26 05:41:35;;;;;;;12.10;5.45;;;;;;;;;;2088063;28;20175;-49
2021/08/26 05:42:35;;;;;;;12.10;4.72;;;;;;;;;;2089212;28;20191;-53
2021/08/26 05:43:35;;;;;;;9.73;4.85;;;;;;;;;;2093879;28;20266;-56
2021/08/26 05:44:36;;;;;;;12.10;5.50;;;;;;;;;;2090127;28;20166;-54
2021/08/26 05:45:36;;;;;;;11.18;4.72;;;;;;;;;;2091862;28;20164;-58
2021/08/26 05:46:37;;;;;;;18.73;6.68;;;;;;;;;;2090095;28;20544;-55
2021/08/26 05:47:37;;;;;;;9.45;5.13;;;;;;;;;;2090919;28;20203;-56
2021/08/26 05:48:37;;;;;;;11.10;4.82;;;;;;;;;;2089663;28;20172;-56
2021/08/26 05:49:37;;;;;;;12.65;5.63;;;;;;;;;;2094549;28;20178;-56
2021/08/26 05:50:38;;;;;;;13.25;5.65;;;;;;;;;;2088984;28;20214;-51
2021/08/26 05:51:38;;;;;;;11.95;5.85;;;;;;;;;;2093707;28;20178;-56
2021/08/26 05:52:38;;;;;;;11.55;5.38;;;;;;;;;;2090981;28;20168;-51
2021/08/26 05:53:38;;;;;;;15.10;6.05;;;;;;;;;;2097253;28;20214;-56
2021/08/26 05:54:38;;;;;;;9.93;5.03;;;;;;;;;;2082529;28;20176;-56
2021/08/26 05:55:39;;;;;;;15.82;5.95;;;;;;;;;;2084581;28;20187;-55
2021/08/26 05:56:39;;;;;;;12.20;6.20;;;;;;;;;;2090560;28;20262;-57
2021/08/26 05:57:39;;;;;;;12.02;5.40;;;;;;;;;;2089908;28;20211;-51
2021/08/26 05:58:39;;;;;;;16.13;5.85;;;;;;;;;;2088474;28;20168;-56
2021/08/26 05:59:40;;;;;;;12.38;5.45;;;;;;;;;;2089181;28;20679;-53
2021/08/26 06:00:40;;;;;;;16.17;6.07;;;;;;;;;;2090653;28;20218;-53
2021/08/26 06:01:40;;;;;;;14.52;5.65;;;;;;;;;;2090126;28;20175;-56
2021/08/26 06:02:40;;;;;;;13.35;5.55;;;;;;;;;;2092896;28;20233;-55
2021/08/26 06:03:41;;;;;;;13.38;5.43;;;;;;;;;;2090218;28;20186;-53
2021/08/26 06:04:41;;;;;;;12.60;5.63;;;;;;;;;;2084788;28;20172;-57
2021/08/26 06:05:42;;;;;;;9.77;5.63;;;;;;;;;;2090766;28;20211;-54